Date,TemperatureHighF,TemperatureAvgF,TemperatureLowF,DewpointHighF,DewpointAvgF,DewpointLowF,HumidityHigh,HumidityAvg,HumidityLow,PressureMaxIn,PressureMinIn,WindSpeedMaxMPH,WindSpeedAvgMPH,GustSpeedMaxMPH,PrecipitationSumIn
2013-1-1,83,73,67,59,55,53,73,54,39,30.11,29.96,14,1,14,0.00
2013-1-2,86,73,62,67,59,53,83,64,36,30.01,29.90,6,0,6,0.00
2013-1-3,81,73,68,100,68,63,100,81,58,30.03,29.94,114,13,114,0.06
2013-1-5,158,0,158,100,100,100,100,100,100,30.13,30.10,114,114,114,0.00
2013-1-6,158,0,158,100,100,100,100,100,100,30.10,29.97,114,114,114,0.00
2013-1-7,158,23,70,100,89,-26,100,93,61,30.07,29.98,114,80,114,0.00
2013-1-8,86,76,69,73,67,65,91,76,54,30.11,29.98,0,0,0,0.00
2013-1-9,84,78,74,68,66,64,77,68,54,30.19,30.07,114,2,114,0.00
2013-1-10,83,77,73,66,62,57,72,60,42,30.21,30.09,18,2,18,0.00
2013-1-11,83,76,71,66,63,61,77,64,52,30.17,30.06,12,1,12,0.00
2013-1-12,84,75,68,66,63,60,80,67,48,30.09,30.00,13,1,13,0.00
2013-1-13,86,75,68,65,60,55,81,62,40,30.04,29.98,15,1,15,0.00
2013-1-14,84,74,66,63,59,55,81,61,42,30.08,30.02,14,1,14,0.00
2013-1-15,69,69,68,62,62,60,79,79,74,30.05,30.01,0,0,0,0.00
2013-1-16,69,69,69,62,62,62,79,79,79,30.01,30.01,0,0,0,0.00
2013-1-17,69,68,61,62,60,51,79,77,66,30.01,29.97,12,0,12,0.02
2013-1-18,72,64,54,55,48,43,70,57,44,30.15,30.01,13,1,13,0.02
2013-1-19,72,69,65,66,60,52,89,75,53,30.14,30.01,10,0,10,0.20
2013-1-20,83,71,64,78,64,59,96,80,49,30.06,29.92,7,0,7,0.14
2013-1-21,84,73,66,70,64,61,90,75,55,29.98,29.88,8,0,8,0.33
2013-1-22,78,69,63,62,55,49,85,62,41,30.13,29.93,14,0,14,0.02
2013-1-23,76,67,60,53,50,46,70,55,35,30.21,30.11,14,1,14,0.00
2013-1-24,76,62,58,52,50,43,78,66,34,30.20,30.11,5,0,9,0.00
2013-1-25,78,66,57,54,50,47,74,58,37,30.20,30.09,6,1,10,0.00
2013-1-26,79,68,58,57,53,49,84,63,37,30.17,30.07,3,0,9,0.00
2013-1-27,80,71,62,59,56,52,82,62,41,30.19,30.11,4,1,13,0.00
2013-1-28,82,75,70,61,58,54,67,57,42,30.22,30.14,8,2,14,0.00
2013-1-29,83,74,69,67,61,59,78,64,47,30.14,30.04,12,2,16,0.00
2013-1-30,84,75,70,65,61,57,79,61,44,30.04,29.88,114,2,114,0.00
2013-1-31,72,67,59,69,56,36,90,68,41,30.10,29.86,14,1,14,0.00
2013-2-1,74,63,53,49,43,33,60,48,38,30.19,30.08,13,1,14,0.00
2013-2-2,75,64,54,51,44,-41,75,49,33,30.17,30.02,12,1,12,0.00
2013-2-3,76,64,56,52,44,28,83,53,19,30.09,29.98,10,0,10,0.00
2013-2-4,78,63,51,51,43,0,73,52,23,30.06,29.93,9,0,9,0.00
2013-2-5,81,67,54,58,53,0,84,64,38,30.00,29.91,9,0,9,0.00
2013-2-6,84,70,61,63,58,56,86,67,44,30.02,29.93,8,0,8,0.00
2013-2-7,85,73,63,65,59,40,84,63,39,29.99,29.85,10,1,10,0.00
2013-2-8,86,75,69,68,64,56,87,68,45,29.95,29.83,10,0,10,0.00
2013-2-9,84,72,64,66,58,53,87,64,44,30.09,29.93,114,2,114,0.00
2013-2-10,77,72,68,62,57,52,73,60,52,30.18,30.06,16,2,114,0.00
2013-2-11,82,73,66,62,59,56,78,63,48,30.13,30.02,16,2,16,0.00
2013-2-12,90,75,64,67,61,55,87,65,32,30.03,29.88,10,1,13,0.00
2013-2-13,91,78,69,71,65,61,88,66,38,29.92,29.81,9,1,114,0.00
2013-2-14,84,73,64,69,64,59,87,76,55,29.93,29.76,20,1,20,0.26
2013-2-15,73,68,64,66,63,59,96,85,71,29.93,29.86,8,0,8,0.45
2013-2-16,77,67,56,63,53,40,91,66,30,30.00,29.79,0,0,0,0.02
2013-2-17,60,53,45,42,23,6,59,34,19,30.22,29.99,0,0,0,0.00
2013-2-18,68,52,47,51,36,28,57,53,47,30.22,30.11,0,0,0,0.00
2013-2-19,81,71,59,64,56,48,81,60,45,30.11,29.99,0,0,0,0.00
2013-2-20,83,72,65,65,60,51,90,69,36,30.03,29.92,0,0,0,0.00
2013-2-21,85,74,65,67,61,58,88,67,43,30.00,29.90,0,0,0,0.00
2013-2-22,86,77,70,68,65,62,84,69,50,30.01,29.93,0,0,0,0.00
2013-2-23,90,79,73,68,66,61,80,65,40,29.96,29.83,0,0,0,0.00
2013-2-24,93,80,72,72,65,55,87,64,29,29.91,29.81,0,0,0,0.00
2013-2-25,88,77,69,72,66,62,83,68,46,29.83,29.72,0,0,0,0.00
2013-2-26,90,80,74,70,66,0,80,63,41,29.81,29.71,0,0,0,0.00
2013-2-27,78,72,67,70,62,54,86,72,46,29.88,29.77,0,0,0,0.12
2013-2-28,71,66,61,63,51,44,86,61,40,29.92,29.82,0,0,0,0.08
2013-3-1,68,63,58,53,47,-34,74,57,46,29.91,29.81,0,0,0,0.00
2013-3-2,68,59,53,44,37,30,59,45,29,29.95,29.86,0,0,0,0.00
2013-3-3,64,56,51,45,38,33,74,52,33,30.06,29.88,0,0,0,0.02
2013-3-4,71,55,43,38,32,24,66,44,19,30.13,30.03,0,0,0,0.02
2013-3-5,79,64,50,53,47,37,80,57,34,30.09,29.99,0,0,0,0.00
2013-3-6,80,66,53,62,46,18,85,53,19,30.02,29.86,0,0,0,0.00
2013-3-7,73,60,48,50,38,31,75,47,27,30.10,29.98,0,0,0,0.00
2013-3-8,78,64,53,51,44,32,82,54,19,30.11,30.01,0,0,0,0.00
2013-3-9,79,65,54,54,48,45,80,56,34,30.10,30.01,18,1,18,0.04
2013-3-10,77,68,64,51,49,46,60,50,36,30.07,29.98,13,1,13,0.04
2013-3-11,79,73,68,57,55,52,63,54,39,30.02,29.87,7,2,114,0.00
2013-3-12,86,76,68,63,60,-31,75,60,44,29.92,29.82,8,1,114,0.00
2013-3-13,78,68,58,62,48,33,80,53,24,30.04,29.89,14,1,14,0.00
2013-3-14,75,62,54,49,40,28,77,48,19,30.12,30.01,15,1,15,0.00
2013-3-15,75,63,53,49,43,39,67,50,28,30.17,30.06,11,1,11,0.00
2013-3-16,81,66,54,56,48,44,82,55,32,30.11,30.00,10,1,10,0.00
2013-3-17,82,69,58,63,53,47,80,58,36,30.06,29.94,12,1,12,0.00
2013-3-18,85,73,65,65,61,54,82,67,46,29.99,29.88,15,1,15,0.02
2013-3-19,84,74,69,68,64,59,88,72,45,29.93,29.72,30,0,30,0.04
2013-3-20,92,75,65,68,59,49,86,61,32,29.90,29.72,15,1,15,0.02
2013-3-21,78,69,61,59,47,26,82,51,19,29.86,29.74,8,1,12,0.00
2013-3-22,79,69,57,65,55,46,79,62,41,29.92,29.81,12,2,12,0.00
2013-3-23,92,80,71,74,66,60,88,64,36,29.90,29.71,12,1,12,0.00
2013-3-24,93,82,75,76,67,60,86,62,37,29.81,29.61,20,2,20,0.00
2013-3-25,81,76,66,70,56,38,82,54,27,29.91,29.66,15,1,15,0.06
2013-3-26,70,62,52,39,31,24,48,32,19,30.13,29.90,16,3,16,0.04
2013-3-27,72,58,47,40,34,28,58,42,22,30.17,30.08,13,1,13,0.00
2013-3-28,77,62,51,43,38,29,67,44,19,30.18,30.07,11,1,11,0.00
2013-3-29,77,66,55,48,43,37,62,46,29,30.20,30.11,10,1,15,0.00
2013-3-30,80,68,56,56,47,40,78,49,27,30.17,30.07,15,2,15,0.00
2013-3-31,85,72,60,61,56,50,79,58,38,30.10,29.96,14,2,14,0.00
2013-4-1,90,77,69,72,62,54,84,61,33,29.97,29.86,14,1,14,0.00
2013-4-2,89,75,67,66,61,55,89,63,35,30.00,29.90,9,1,10,0.00
2013-4-3,88,78,68,71,63,56,83,62,40,29.98,29.90,13,2,13,0.00
2013-4-4,89,77,70,67,65,57,84,68,41,29.96,29.81,19,2,19,0.77
2013-4-5,74,70,67,67,64,61,87,81,70,29.90,29.73,11,0,11,0.04
2013-4-6,71,66,62,63,57,55,86,74,62,30.00,29.84,8,0,8,0.00
2013-4-7,82,73,69,61,58,54,72,59,42,30.06,29.93,12,2,12,0.00
2013-4-8,85,74,62,64,56,47,84,57,28,30.04,29.96,14,1,14,0.00
2013-4-9,86,76,67,65,61,-35,82,61,43,30.06,29.96,13,2,13,0.00
2013-4-10,88,79,71,70,65,61,76,63,47,30.02,29.90,15,3,15,0.00
2013-4-11,88,80,74,69,67,65,79,65,47,29.93,29.81,14,4,20,0.04
2013-4-12,91,81,74,74,70,65,78,68,49,29.86,29.77,18,1,18,0.57
2013-4-13,89,79,74,72,69,65,82,72,49,29.89,29.79,8,0,8,0.12
2013-4-14,92,81,73,76,69,65,90,68,43,29.88,29.80,16,2,16,0.04
2013-4-15,94,80,72,71,69,64,85,69,40,29.97,29.84,11,1,11,0.24
2013-4-16,89,80,72,74,68,64,90,69,48,30.03,29.93,14,2,14,0.20
2013-4-17,88,80,74,68,64,60,78,61,43,30.02,29.93,12,2,12,0.00
2013-4-18,91,82,74,72,66,61,75,59,41,29.97,29.89,13,2,13,0.00
2013-4-19,92,83,77,69,67,62,71,58,40,29.96,29.87,16,3,16,0.00
2013-4-20,96,81,75,75,68,56,83,66,33,29.99,29.84,18,1,18,0.10
2013-4-21,90,79,73,72,67,62,86,68,44,30.00,29.89,13,2,13,0.08
2013-4-22,92,76,70,70,66,61,85,73,39,29.96,29.83,17,1,17,0.80
2013-4-23,85,76,68,73,62,55,91,64,42,30.00,29.86,17,3,17,0.02
2013-4-24,88,78,68,64,58,55,75,51,36,30.04,29.94,13,1,13,0.00
2013-4-25,85,77,70,85,57,49,100,50,36,30.11,29.99,14,1,14,0.00
2013-4-26,85,76,67,63,58,56,76,54,40,30.13,30.02,16,2,16,0.00
2013-4-27,86,78,71,62,58,53,65,52,36,30.12,29.99,15,3,15,0.00
2013-4-28,87,79,73,62,58,54,65,50,37,30.03,29.90,15,3,15,0.00
2013-4-29,88,79,73,69,63,56,71,59,44,29.94,29.85,16,2,16,0.00
2013-4-30,90,78,72,71,66,60,80,66,43,29.91,29.83,12,0,12,0.04
2013-5-1,89,76,71,76,66,62,85,73,47,29.90,29.82,12,0,12,0.16
2013-5-2,82,73,70,72,67,63,91,82,66,29.85,29.69,18,1,18,0.20
2013-5-3,93,78,69,78,65,58,89,68,34,29.73,29.60,12,1,12,0.33
2013-5-4,92,80,69,81,62,55,88,59,34,29.72,29.60,14,1,14,0.26
2013-5-5,84,76,68,66,57,46,81,56,30,29.85,29.68,12,2,12,0.00
2013-5-6,90,76,60,73,54,47,76,49,27,29.93,29.83,12,0,12,0.00
2013-5-7,89,77,65,61,54,48,78,48,26,29.98,29.88,14,1,14,0.00
2013-5-8,91,78,64,62,54,47,78,46,23,30.05,29.96,10,0,10,0.00
2013-5-9,92,80,67,68,61,52,75,55,36,30.05,29.97,12,1,12,0.00
2013-5-10,93,84,74,76,66,62,75,58,37,30.04,29.93,13,2,13,0.00
2013-5-11,93,82,74,76,68,63,83,63,42,29.98,29.89,12,1,12,0.45
2013-5-12,96,82,73,77,67,62,86,64,35,29.98,29.86,12,0,12,0.51
2013-5-13,92,81,72,75,65,57,86,61,39,30.00,29.90,11,1,11,0.29
2013-5-14,86,77,70,63,55,48,73,48,34,30.09,29.97,16,2,16,0.00
2013-5-15,86,76,67,71,55,50,72,49,31,30.10,30.00,14,2,14,0.00
2013-5-16,88,78,67,63,56,52,72,47,33,30.03,29.95,12,2,12,0.00
2013-5-17,92,80,70,71,63,58,75,57,36,30.00,29.92,16,1,16,0.00
2013-5-18,93,82,74,72,66,64,79,59,43,30.01,29.93,12,2,12,0.00
2013-5-19,91,82,72,72,64,58,81,56,36,30.01,29.91,12,2,12,0.00
2013-5-20,83,78,75,72,68,63,78,70,63,29.99,29.90,10,1,10,0.45
2013-5-21,87,81,77,68,66,64,71,61,49,29.89,29.84,12,2,12,0.57
2013-5-22,93,79,74,74,68,62,83,72,44,29.88,29.80,114,0,114,0.00
2013-5-23,94,84,73,78,67,58,88,60,31,29.92,29.82,14,1,14,0.00
2013-5-24,96,85,76,74,68,59,82,58,30,29.97,29.85,11,1,11,0.00
2013-5-25,88,82,76,71,63,0,79,54,37,30.07,29.95,19,4,19,0.00
2013-5-26,91,81,71,63,59,56,66,48,34,30.08,30.01,16,3,16,0.00
2013-5-27,87,80,75,69,65,58,79,60,47,30.06,29.97,17,4,17,0.04
2013-5-28,87,80,76,70,68,66,81,67,53,30.02,29.95,114,4,114,0.16
2013-5-29,84,77,72,72,68,62,87,74,59,30.00,29.93,21,3,21,0.53
2013-5-30,86,80,73,72,68,64,84,67,55,29.98,29.91,21,4,21,0.18
2013-5-31,88,81,76,73,69,66,82,68,51,29.96,29.90,16,3,16,0.08
2013-6-1,89,79,75,76,72,0,86,79,56,29.94,29.86,10,0,10,0.18
2013-6-2,97,82,73,82,70,66,90,70,41,29.92,29.83,13,0,13,0.12
2013-6-3,93,83,74,74,70,64,85,66,41,29.95,29.82,9,0,9,0.12
2013-6-4,90,81,75,74,70,64,83,70,43,29.96,29.87,8,0,8,0.06
2013-6-5,87,82,79,74,72,69,80,71,60,29.93,29.80,11,1,11,0.04
2013-6-6,93,82,77,77,72,66,85,71,48,29.83,29.69,18,2,18,0.67
2013-6-7,93,80,75,76,70,66,86,73,48,29.92,29.75,12,0,12,0.41
2013-6-8,94,82,75,76,72,68,89,72,48,30.01,29.87,12,0,12,0.08
2013-6-9,92,85,80,74,70,66,74,61,46,30.02,29.94,16,2,19,0.00
2013-6-10,92,86,80,73,70,68,74,62,47,30.00,29.92,114,1,114,0.00
2013-6-11,94,85,80,77,72,66,80,65,40,30.01,29.91,12,0,114,0.08
2013-6-12,95,82,77,88,72,66,80,70,42,29.99,29.92,7,0,7,0.08
2013-6-13,95,83,75,84,69,63,86,66,39,29.97,29.85,6,0,6,0.08
2013-6-14,100,85,75,76,68,62,83,59,33,29.89,29.80,11,0,11,0.26
2013-6-15,98,85,76,77,69,61,84,60,32,29.97,29.84,8,0,8,0.06
2013-6-16,95,85,76,76,69,65,82,61,39,30.00,29.92,10,1,10,0.02
2013-6-17,102,88,78,76,69,65,77,55,36,29.99,29.92,13,1,13,0.00
2013-6-18,101,88,79,77,69,64,78,55,35,29.99,29.89,114,1,114,0.00
2013-6-19,97,88,80,76,69,64,78,56,36,29.96,29.89,12,1,12,0.00
2013-6-20,95,82,79,100,86,60,100,82,40,30.01,29.93,114,65,114,0.18
2013-6-21,96,86,78,78,68,62,81,57,36,30.03,29.94,11,1,11,0.04
2013-6-22,96,87,78,74,68,63,75,55,39,30.01,29.95,12,2,12,0.00
2013-6-23,96,86,79,80,67,62,69,55,41,30.04,29.96,14,2,14,0.20
2013-6-24,93,85,79,76,69,65,74,58,43,30.08,29.99,14,2,14,0.06
2013-6-25,94,86,79,75,70,66,76,59,44,30.04,29.95,14,1,14,0.06
2013-6-26,94,86,79,80,70,64,73,59,40,29.99,29.92,11,1,11,0.02
2013-6-27,94,85,79,83,70,65,100,61,45,29.97,29.87,7,0,7,0.02
2013-6-28,103,86,76,94,70,61,80,62,36,29.92,29.77,13,0,13,0.69
2013-6-29,97,84,76,82,71,61,84,67,35,29.83,29.75,11,0,13,0.80
2013-6-30,96,84,77,78,69,58,81,62,41,29.86,29.76,13,0,13,0.26
2013-7-1,94,84,78,76,70,66,78,65,44,29.95,29.83,18,1,18,0.06
2013-7-2,92,84,78,76,71,68,80,66,50,30.02,29.88,12,1,12,0.02
2013-7-3,92,84,79,77,70,66,78,64,49,30.04,29.95,18,2,22,0.02
2013-7-4,93,85,77,73,70,66,82,61,45,30.08,29.97,18,3,18,0.22
2013-7-5,89,83,78,78,71,68,82,68,56,30.04,29.96,18,2,18,0.33
2013-7-6,92,85,80,74,69,65,73,61,43,30.03,29.94,14,2,17,0.02
2013-7-7,93,85,78,80,69,65,77,60,45,30.01,29.93,17,2,17,0.02
2013-7-8,94,86,78,77,68,62,72,56,41,30.05,29.98,13,1,13,0.00
2013-7-9,92,84,77,80,67,60,78,58,41,30.05,29.96,13,1,13,0.00
2013-7-10,89,81,75,73,70,66,80,70,51,30.00,29.91,8,0,11,0.26
2013-7-11,100,85,76,79,69,61,86,61,41,29.95,29.85,9,1,12,0.20
2013-7-12,96,84,77,78,69,63,81,61,37,29.89,29.81,9,0,9,0.02
2013-7-13,92,80,77,100,83,66,100,81,45,29.94,29.83,114,51,114,0.31
2013-7-14,94,82,74,100,81,65,100,78,41,30.01,29.89,114,45,114,0.77
2013-7-15,93,83,74,77,68,63,86,64,40,30.00,29.92,11,1,11,0.77
2013-7-16,87,80,75,74,68,65,82,67,49,30.06,29.96,18,1,18,0.10
2013-7-17,82,76,73,74,70,49,88,81,68,30.07,29.95,19,0,19,0.43
2013-7-18,90,78,74,82,70,62,90,77,57,30.04,29.96,15,0,15,0.20
2013-7-19,93,84,74,84,71,67,90,69,46,30.04,29.95,13,1,13,0.04
2013-7-20,93,84,78,85,72,66,81,69,44,30.03,29.94,11,0,11,0.02
2013-7-21,95,84,77,77,72,65,83,68,47,30.06,29.96,9,0,9,0.02
2013-7-22,96,87,79,78,70,65,82,59,39,30.06,29.97,11,1,11,0.00
2013-7-23,99,88,78,78,68,59,81,55,28,30.02,29.88,9,0,9,0.00
2013-7-24,98,88,79,76,68,60,79,55,31,29.94,29.82,12,0,12,0.04
2013-7-25,99,88,77,75,67,63,78,51,34,29.93,29.83,7,1,11,0.00
2013-7-26,99,86,80,74,70,64,77,60,35,29.95,29.84,14,1,14,0.71
2013-7-27,94,83,79,79,72,59,84,69,46,29.92,29.84,12,0,12,0.96
2013-7-28,94,84,78,82,71,62,85,67,49,29.99,29.86,9,0,9,0.06
2013-7-29,94,84,77,81,71,68,83,67,44,30.04,29.93,11,1,12,0.00
2013-7-30,96,87,77,80,71,67,79,62,45,30.07,29.99,12,1,12,0.00
2013-7-31,94,87,80,82,70,66,81,59,44,30.02,29.91,14,2,14,0.02
2013-8-1,94,86,80,81,68,64,71,56,42,29.96,29.85,12,2,14,0.02
2013-8-2,96,84,78,75,69,62,77,63,37,29.97,29.83,14,0,14,0.37
2013-8-3,90,80,77,100,82,63,100,83,50,30.05,29.93,114,43,114,0.37
2013-8-4,77,77,77,100,100,100,100,100,100,30.03,29.89,114,114,114,0.29
2013-8-5,86,78,77,100,98,66,100,98,54,29.95,29.86,114,108,114,0.00
2013-8-6,94,84,79,71,68,66,75,59,43,29.88,29.79,10,0,10,0.00
2013-8-7,97,86,77,79,70,66,84,61,41,29.90,29.81,14,1,14,0.00
2013-8-8,95,87,81,77,70,64,73,58,42,29.93,29.83,17,2,17,0.06
2013-8-9,94,85,81,73,68,65,70,58,43,29.97,29.86,16,2,16,0.02
2013-8-10,95,87,80,73,70,66,74,58,41,30.03,29.94,13,2,13,0.02
2013-8-11,94,87,81,74,70,66,73,58,44,30.04,29.97,12,2,12,0.00
2013-8-12,93,85,78,76,70,65,79,61,43,30.02,29.92,16,2,114,0.08
2013-8-13,96,87,80,78,69,64,80,57,37,29.96,29.87,12,1,12,0.08
2013-8-14,96,87,78,77,69,64,80,57,39,29.94,29.84,10,1,12,0.00
2013-8-15,91,83,77,76,72,-30,81,68,53,29.97,29.87,11,0,11,0.14
2013-8-16,95,87,80,78,72,67,82,62,43,29.97,29.88,11,1,11,0.14
2013-8-17,95,88,82,75,72,68,74,60,46,29.99,29.91,14,2,14,0.00
2013-8-18,93,87,82,74,71,68,73,61,47,29.99,29.90,16,2,16,0.00
2013-8-19,95,87,80,75,71,66,79,60,43,29.98,29.87,14,2,14,0.00
2013-8-20,94,87,81,75,70,66,72,58,43,29.98,29.89,13,2,16,0.00
2013-8-21,92,85,80,75,72,69,79,66,48,29.99,29.90,17,2,17,0.14
2013-8-22,94,86,77,77,72,67,83,64,46,30.00,29.86,15,2,15,0.14
2013-8-23,95,86,79,80,71,66,77,62,41,29.93,29.85,12,1,12,0.02
2013-8-24,95,85,78,81,70,64,84,63,43,30.03,29.88,12,1,12,0.02
2013-8-25,89,82,78,75,71,67,83,70,52,30.07,29.94,10,1,10,0.08
2013-8-26,92,83,78,78,69,65,79,64,43,30.03,29.92,13,1,13,0.02
2013-8-27,92,81,75,78,69,61,83,67,41,29.96,29.88,10,0,10,0.04
2013-8-28,92,82,76,77,70,65,82,68,46,29.96,29.86,12,1,12,0.29
2013-8-29,94,84,75,72,69,65,82,63,41,29.94,29.84,11,1,11,0.26
2013-8-30,96,86,77,75,68,62,82,58,36,29.92,29.81,11,1,11,0.00
2013-8-31,95,82,76,75,69,64,82,67,39,29.90,29.82,17,0,17,0.31
2013-9-1,92,81,74,77,72,64,87,75,47,29.92,29.84,7,0,7,0.04
2013-9-2,95,80,75,79,71,64,88,75,41,29.94,29.85,16,0,16,0.77
2013-9-3,92,82,73,78,71,62,88,72,50,29.94,29.84,0,0,0,0.12
2013-9-4,89,83,78,79,73,71,84,73,58,29.98,29.86,0,0,0,0.12
2013-9-5,94,85,79,77,72,66,83,67,45,29.98,29.90,0,0,0,0.00
2013-9-6,95,86,78,78,71,65,83,64,40,29.95,29.83,10,0,10,0.00
2013-9-7,90,81,75,78,71,64,82,72,49,29.90,29.81,7,0,7,0.04
2013-9-8,94,80,74,74,70,65,87,73,40,29.86,29.77,9,0,9,0.41
2013-9-9,92,83,74,73,69,65,86,66,45,29.91,29.81,11,1,11,0.41
2013-9-10,92,83,77,76,70,65,84,66,46,29.95,29.86,14,1,17,0.00
2013-9-11,86,81,76,76,71,67,82,72,61,29.97,29.87,15,1,17,0.14
2013-9-12,88,82,77,75,71,69,85,72,57,29.93,29.80,0,0,2,0.14
2013-9-13,96,84,75,76,69,62,85,62,37,29.82,29.71,0,0,0,0.00
2013-9-14,95,86,77,75,69,62,82,59,35,29.89,29.73,0,0,0,0.00
2013-9-17,82,81,80,72,71,69,74,72,66,29.89,29.82,0,0,0,0.33
2013-9-18,90,81,76,74,71,66,85,71,48,29.93,29.82,0,0,0,0.41
2013-9-19,92,81,75,77,70,66,87,71,47,29.92,29.83,0,0,0,0.16
2013-9-20,89,82,74,70,65,59,80,57,38,29.91,29.81,0,0,0,0.00
2013-9-21,85,84,79,70,66,65,70,55,52,29.81,29.70,0,0,0,0.00
2013-9-22,96,86,77,75,69,62,82,61,35,29.78,29.67,0,0,0,0.00
2013-9-23,92,83,78,76,72,66,82,71,49,29.89,29.77,13,0,13,0.33
2013-9-24,97,84,76,80,70,0,86,66,39,29.88,29.78,11,0,11,0.04
2013-9-25,92,82,76,75,70,66,78,67,48,29.83,29.72,9,0,9,0.12
2013-9-26,93,82,77,78,73,69,85,74,50,29.79,29.71,14,0,14,0.29
2013-9-27,92,82,75,73,69,62,88,67,38,29.83,29.73,7,0,7,0.08
2013-9-28,90,81,75,72,68,64,84,65,43,29.87,29.78,13,1,13,0.16
2013-9-29,91,82,74,73,66,60,86,62,38,29.88,29.78,10,0,10,0.20
2013-9-30,92,82,73,71,66,62,81,60,39,29.91,29.81,9,1,9,0.00
2013-10-1,90,83,76,71,66,62,76,58,42,29.94,29.86,14,2,14,0.00
2013-10-2,87,83,80,70,68,66,68,61,50,29.95,29.87,114,2,114,0.00
2013-10-3,91,83,77,72,69,65,78,63,47,29.96,29.86,10,1,10,0.00
2013-10-4,91,82,75,73,67,62,82,62,42,29.97,29.89,114,1,114,0.00
2013-10-5,92,82,73,71,65,58,84,60,35,29.95,29.84,10,1,10,0.00
2013-10-6,93,83,75,74,66,58,82,58,32,29.88,29.77,8,0,8,0.00
2013-10-7,96,81,75,72,67,61,79,65,36,29.81,29.72,17,0,17,0.04
2013-10-8,94,83,76,78,69,65,87,65,41,29.85,29.75,7,0,7,0.06
2013-10-9,89,80,73,72,68,-28,79,68,49,29.90,29.81,10,0,10,0.02
2013-10-10,89,80,73,70,66,62,85,64,44,29.92,29.84,12,1,12,0.00
2013-10-11,89,79,70,70,63,58,84,60,38,29.93,29.85,12,1,12,0.00
2013-10-12,89,78,69,73,62,57,82,60,38,29.94,29.86,10,0,10,0.00
2013-10-13,87,78,72,73,62,55,84,60,34,29.95,29.87,12,1,12,0.00
2013-10-14,89,79,71,72,63,58,83,60,37,29.93,29.81,12,1,12,0.00
2013-10-15,88,79,71,72,65,61,87,64,42,29.87,29.77,11,1,11,0.00
2013-10-16,89,78,71,74,65,60,100,65,41,29.86,29.79,10,0,10,0.00
2013-10-17,91,80,71,71,66,62,85,64,40,29.88,29.80,11,0,11,0.00
2013-10-18,90,81,72,71,66,64,82,63,43,29.90,29.81,10,0,10,0.00
2013-10-19,93,83,74,72,67,64,82,61,43,29.88,29.78,8,1,11,0.00
2013-10-20,94,83,77,75,70,64,81,65,37,29.88,29.78,10,0,10,0.00
2013-10-21,93,84,76,75,70,65,82,64,44,29.92,29.81,9,0,9,0.00
2013-10-22,94,84,76,77,70,65,83,65,42,29.88,29.74,9,0,9,0.06
2013-10-23,90,82,77,74,68,63,80,63,44,29.87,29.73,11,0,11,0.06
2013-10-24,81,77,73,64,60,55,67,56,47,30.00,29.84,11,0,11,0.00
2013-10-25,85,76,70,64,58,54,72,55,36,30.06,29.97,15,1,15,0.00
2013-10-26,86,75,68,68,59,54,77,59,37,30.06,29.96,12,1,12,0.00
2013-10-27,87,75,66,61,58,54,73,56,35,30.01,29.93,12,1,12,0.00
2013-10-28,87,76,66,66,59,50,84,59,31,30.05,29.96,11,1,11,0.00
2013-10-29,87,77,68,67,61,58,84,60,40,30.08,29.99,15,2,15,0.00
2013-10-30,86,79,71,64,60,57,73,53,40,30.10,29.99,15,2,15,0.00
2013-10-31,88,80,74,68,64,61,73,59,43,30.02,29.90,13,1,13,0.00
2013-11-1,91,82,74,75,67,63,78,63,42,29.93,29.80,114,1,114,0.02
2013-11-2,92,80,72,72,65,57,85,62,33,29.85,29.71,9,0,9,0.02
2013-11-3,83,74,69,62,57,52,71,56,40,29.94,29.80,14,1,14,0.00
2013-11-4,83,77,74,66,58,49,68,52,34,29.99,29.91,21,5,21,0.00
2013-11-5,84,79,75,68,62,59,74,57,46,30.00,29.92,20,6,20,0.00
2013-11-6,86,79,72,65,63,60,76,58,44,29.97,29.90,13,3,19,0.00
2013-11-7,89,78,70,70,65,59,87,66,38,29.93,29.82,10,0,10,0.00
2013-11-8,86,77,72,70,66,60,84,69,44,29.95,29.85,18,2,18,0.00
2013-11-9,81,76,74,71,68,65,88,76,68,30.03,29.92,18,3,18,0.00
2013-11-10,85,79,74,67,65,62,71,63,51,30.03,29.95,14,3,14,0.00
2013-11-11,86,77,71,68,63,60,82,64,46,30.03,29.95,15,2,15,0.00
2013-11-12,87,77,69,72,63,58,84,62,41,29.99,29.88,10,1,10,0.00
2013-11-13,77,72,69,63,59,50,78,63,49,30.12,29.90,25,3,25,0.04
2013-11-14,77,73,69,57,52,49,57,48,39,30.15,30.04,18,5,18,0.02
2013-11-15,84,77,72,65,60,54,70,56,46,30.05,29.94,12,4,14,0.00
2013-11-16,82,78,76,67,64,59,75,62,49,30.01,29.92,14,2,14,0.04
2013-11-17,88,80,73,68,65,62,75,62,45,29.99,29.91,13,2,13,0.02
2013-11-18,88,78,71,75,66,61,86,69,47,29.94,29.83,8,0,8,0.04
2013-11-19,88,78,72,73,67,62,82,70,44,29.86,29.76,14,0,14,0.02
2013-11-20,87,78,71,76,68,64,87,73,55,29.97,29.83,7,0,7,0.00
2013-11-21,86,78,73,76,68,64,84,74,57,30.05,29.95,15,1,15,0.12
2013-11-22,84,78,74,70,66,62,82,66,54,30.06,29.97,12,4,17,0.20
2013-11-23,86,78,73,68,65,63,76,66,50,29.99,29.88,13,2,13,0.00
2013-11-24,84,75,69,71,63,57,86,69,45,30.05,29.89,20,2,20,0.02
2013-11-25,77,74,72,67,60,54,81,62,52,30.11,29.96,18,6,22,0.02
2013-11-26,87,78,72,71,68,66,83,72,54,29.96,29.74,17,4,17,0.06
2013-11-27,81,73,60,72,60,48,87,67,36,30.03,29.70,15,2,15,0.12
2013-11-28,74,63,50,55,48,43,78,61,42,30.16,30.03,12,2,16,0.00
2013-11-29,78,69,60,63,54,51,82,61,41,30.18,30.09,17,3,20,0.00
2013-11-30,78,69,62,68,59,54,86,72,57,30.12,30.01,20,1,20,0.04
2013-12-1,76,69,62,70,63,56,90,83,71,30.01,29.86,6,0,6,0.04
2013-12-2,77,69,62,67,61,53,96,79,46,29.86,29.74,9,0,9,0.00
2013-12-3,82,71,61,65,59,54,89,68,41,29.92,29.81,6,0,6,0.00
2013-12-4,83,73,65,68,61,57,86,69,45,30.01,29.90,9,0,9,0.00
2013-12-5,86,75,65,72,64,60,87,70,47,30.08,29.99,10,2,14,0.00
2013-12-6,86,78,70,69,64,60,78,65,45,30.10,30.00,14,2,14,0.00
2013-12-7,87,75,67,70,63,58,86,68,43,30.13,30.04,9,1,9,0.00
2013-12-8,86,77,70,71,65,59,83,66,43,30.12,30.03,15,3,15,0.02
2013-12-9,87,78,72,77,63,56,100,60,39,30.11,30.02,11,2,14,0.00
2013-12-10,89,78,70,70,66,64,85,68,45,30.07,29.99,10,0,10,0.00
2013-12-11,87,77,70,75,66,62,89,72,50,30.11,30.03,10,1,10,0.00
2013-12-12,82,72,65,70,62,53,90,72,52,30.14,30.04,12,1,12,0.00
2013-12-13,80,73,65,65,58,52,76,60,47,30.11,30.00,18,4,18,0.00
2013-12-14,85,78,73,69,65,64,77,66,51,30.02,29.90,18,4,18,0.00
2013-12-15,88,77,72,75,67,64,88,72,51,29.97,29.84,11,1,11,0.00
2013-12-16,75,69,63,66,57,54,81,65,51,30.07,29.94,10,0,10,0.00
2013-12-17,79,67,59,61,55,51,87,66,41,30.09,30.00,14,2,14,0.00
2013-12-18,78,66,60,66,53,49,88,64,37,30.15,30.05,9,1,12,0.00
2013-12-19,80,69,57,60,54,52,85,61,40,30.15,30.06,11,2,14,0.00
2013-12-20,85,76,67,66,62,57,75,63,47,30.10,30.01,16,3,16,0.00
2013-12-21,86,78,75,69,66,64,77,67,49,30.06,29.97,16,4,16,0.00
2013-12-22,88,80,76,69,67,64,75,65,45,30.07,29.99,18,4,18,0.00
2013-12-23,87,79,72,72,67,62,80,68,49,30.09,30.02,13,2,13,0.00
2013-12-24,86,73,68,71,63,56,87,72,49,30.09,29.99,15,1,15,0.00
2013-12-25,77,73,70,65,61,59,79,66,54,30.09,30.01,19,5,19,0.00
2013-12-26,80,75,72,67,64,62,78,69,59,30.08,29.98,14,3,14,0.02
2013-12-27,82,75,69,73,65,63,89,73,56,30.11,30.00,14,3,14,0.04
2013-12-28,83,77,74,69,66,63,77,68,58,30.09,29.93,15,5,15,0.02
2013-12-29,84,78,75,71,68,67,81,73,60,29.95,29.84,16,2,16,0.00
2013-12-30,83,74,70,70,66,60,87,75,54,30.06,29.89,8,1,8,0.02
2013-12-31,81,73,68,64,59,56,78,62,45,30.14,30.01,17,4,17,0.02
2014-1-1,83,76,72,70,66,58,84,71,58,30.10,29.95,14,3,14,0.18
2014-1-2,88,77,68,74,64,59,89,68,39,29.95,29.78,13,1,13,0.04